SPST

Details ICAO SPST (TPP)
Name CADETE GUILLERMO DEL CASTILLO PAREDES
Region Peru
Timezone America/Lima (UTC-5.0)
Plans Departing 8
Arriving 7
Stats Elevation 869 ft / 265 m (AMSL)
Location -6.508742° -76.373246°
Runways 1
Magnetic Variation 3.738° W
Sunrise 2017-12-17 10:48:07 UTC / 2017-12-17 05:48:07 Local
Sunset 2017-12-17 23:18:03 UTC / 2017-12-17 18:18:03 Local
Advertisement - Login to hide

Runways

ID Width Length Bearing (true) Bearing (mag) Surface Threshold Offset Overrun Length
17 148 ft / 45 m 8,577 ft / 2,614 m 169.88° 173.62° Asphalt 0 ft / 0 m 255 ft / 78 m
35 148 ft / 45 m 8,577 ft / 2,614 m 349.88° 353.62° Asphalt 0 ft / 0 m 200 ft / 61 m

Map

Weather


0- 5 10 15 20 25 30 35+ Temperature / ° C

Clouds and Precipitation
Forecast for 2017-12-18 06:00 UTC. Updated 25 minutes ago

Ground ~20,000 ft ~40,000 ft Winds

METAR

SPST 180300Z 00000KT 9999 SCT020 24/22 Q1010 RMK BIRD HAZARD RWY 17/35 PP000

TAF

SPST 172259Z 1800/1824 06005KT 9999 SCT020 SCT080 TX38/1819Z TN23/1811Z TEMPO 1811/1813 6000 BR BKN018 BKN080 PROB30 1811/1813 10008KT RA BECMG 1818/1820 05010KT 9999 SCT020 SCT070

Frequencies

Tower 118.40 MHz TARAPOTO TWR
Approach 118.40 MHz TARAPOTO APP/TWR
Warning: Do not use this data for real-world aviation or navigation. No guarantee of current accuracy is given.